createdAt,value
2017-03-02T00:00:00.174Z,0
2017-03-02T00:02:01.235Z,0
2017-03-02T00:03:01.764Z,0
2017-03-02T00:04:02.295Z,0
2017-03-02T00:05:02.838Z,0
2017-03-02T00:06:03.365Z,0
2017-03-02T00:07:03.896Z,0
2017-03-02T00:08:04.435Z,0
2017-03-02T00:09:04.968Z,0
2017-03-02T00:10:05.505Z,0
2017-03-02T00:11:06.050Z,0
2017-03-02T00:12:06.583Z,0
2017-03-02T00:13:07.118Z,0
2017-03-02T00:14:07.652Z,0
2017-03-02T00:15:08.331Z,0
2017-03-02T00:16:08.713Z,0
2017-03-02T00:17:09.258Z,0
2017-03-02T00:18:09.776Z,0
2017-03-02T00:19:10.311Z,0
2017-03-02T00:20:10.833Z,0
2017-03-02T00:21:11.369Z,0
2017-03-02T00:22:11.894Z,0
2017-03-02T00:23:12.428Z,0
2017-03-02T00:24:12.955Z,0
2017-03-02T00:25:13.485Z,0
2017-03-02T00:26:14.016Z,0
2017-03-02T00:27:14.548Z,0
2017-03-02T00:28:15.081Z,0
2017-03-02T00:29:15.613Z,0
2017-03-02T00:30:16.142Z,0
2017-03-02T00:31:16.672Z,0
2017-03-02T00:32:17.206Z,0
2017-03-02T00:33:17.737Z,0
2017-03-02T00:34:18.271Z,0
2017-03-02T00:35:18.950Z,0
2017-03-02T00:36:19.329Z,0
2017-03-02T00:37:20.010Z,0
2017-03-02T00:38:20.392Z,0
2017-03-02T00:39:20.950Z,0
2017-03-02T00:40:21.459Z,0
2017-03-02T00:41:21.991Z,0
2017-03-02T00:42:22.521Z,0
2017-03-02T00:43:23.047Z,0
2017-03-02T00:44:23.579Z,0
2017-03-02T00:45:24.124Z,0
2017-03-02T00:46:24.650Z,0
2017-03-02T00:47:25.170Z,0
2017-03-02T00:48:25.709Z,0
2017-03-02T00:49:26.238Z,0
2017-03-02T00:50:26.777Z,0
2017-03-02T00:51:27.312Z,0
2017-03-02T00:52:27.847Z,0
2017-03-02T00:53:28.381Z,0
2017-03-02T00:54:28.912Z,0
2017-03-02T00:55:29.444Z,0
2017-03-02T00:56:29.977Z,0
2017-03-02T00:57:30.507Z,0
2017-03-02T00:58:31.043Z,0
2017-03-02T00:59:31.575Z,0
2017-03-02T01:00:32.103Z,0
2017-03-02T01:01:32.636Z,0
2017-03-02T01:02:33.172Z,0
2017-03-02T01:03:33.704Z,0
2017-03-02T01:04:34.237Z,0
2017-03-02T01:05:34.915Z,0
2017-03-02T01:06:35.305Z,0
2017-03-02T01:07:35.832Z,0
2017-03-02T01:08:36.364Z,0
2017-03-02T01:09:36.889Z,0
2017-03-02T01:10:37.422Z,0
2017-03-02T01:11:37.955Z,0
2017-03-02T01:12:38.486Z,0
2017-03-02T01:13:39.171Z,0
2017-03-02T01:14:39.554Z,0
2017-03-02T01:15:40.079Z,0
2017-03-02T01:16:40.643Z,0
2017-03-02T01:17:41.140Z,0
2017-03-02T01:18:41.673Z,0
2017-03-02T01:19:42.205Z,0
2017-03-02T01:20:42.735Z,0
2017-03-02T01:21:43.267Z,0
2017-03-02T01:22:43.797Z,0
2017-03-02T01:23:44.328Z,0
2017-03-02T01:24:44.862Z,0
2017-03-02T01:25:45.390Z,0
2017-03-02T01:26:45.922Z,0
2017-03-02T01:27:46.459Z,0
2017-03-02T01:28:46.987Z,0
2017-03-02T01:29:47.519Z,0
2017-03-02T01:30:48.052Z,0
2017-03-02T01:31:48.588Z,0
2017-03-02T01:32:49.127Z,0
2017-03-02T01:33:49.806Z,0
2017-03-02T01:34:50.191Z,0
2017-03-02T01:35:50.726Z,0
2017-03-02T01:36:51.253Z,0
2017-03-02T01:37:51.785Z,0
2017-03-02T01:38:52.322Z,0
2017-03-02T01:39:52.852Z,0
2017-03-02T01:40:53.386Z,0
2017-03-02T01:41:53.916Z,0
2017-03-02T01:42:54.450Z,0
2017-03-02T01:43:54.980Z,0
2017-03-02T01:44:55.514Z,0
2017-03-02T01:45:56.198Z,0
2017-03-02T01:46:56.589Z,0
2017-03-02T01:47:57.108Z,0
2017-03-02T01:48:57.643Z,0
2017-03-02T01:49:58.174Z,0
2017-03-02T01:50:58.706Z,0
2017-03-02T01:51:59.240Z,0
2017-03-02T01:52:59.780Z,0
2017-03-02T01:54:00.305Z,0
2017-03-02T01:55:00.838Z,0
2017-03-02T01:56:01.370Z,0
2017-03-02T01:57:01.901Z,0
2017-03-02T01:58:02.429Z,0
2017-03-02T01:59:02.968Z,0
2017-03-02T02:00:03.494Z,0
2017-03-02T02:01:04.028Z,0
2017-03-02T02:02:04.556Z,0
2017-03-02T02:03:05.231Z,0
2017-03-02T02:04:05.620Z,0
2017-03-02T02:05:06.153Z,0
2017-03-02T02:06:06.684Z,0
2017-03-02T02:07:07.215Z,0
2017-03-02T02:08:07.746Z,0
2017-03-02T02:09:08.286Z,0
2017-03-02T02:10:08.800Z,0
2017-03-02T02:11:09.336Z,0
2017-03-02T02:12:09.869Z,0
2017-03-02T02:13:10.410Z,0
2017-03-02T02:14:10.942Z,0
2017-03-02T02:15:11.472Z,0
2017-03-02T02:16:12.004Z,0
2017-03-02T02:17:12.725Z,0
2017-03-02T02:18:13.065Z,0
2017-03-02T02:19:13.599Z,0
2017-03-02T02:20:14.129Z,0
2017-03-02T02:21:14.663Z,0
2017-03-02T02:22:15.194Z,0
2017-03-02T02:23:15.727Z,0
2017-03-02T02:24:16.257Z,0
2017-03-02T02:25:16.790Z,0
2017-03-02T02:26:17.318Z,0
2017-03-02T02:27:17.849Z,0
2017-03-02T02:28:18.389Z,0
2017-03-02T02:29:18.911Z,0
2017-03-02T02:30:19.438Z,0
2017-03-02T02:31:19.973Z,0
2017-03-02T02:32:20.653Z,0
2017-03-02T02:33:21.034Z,0
2017-03-02T02:34:21.578Z,0
2017-03-02T02:35:22.100Z,0
2017-03-02T02:36:22.628Z,0
2017-03-02T02:37:23.162Z,0
2017-03-02T02:38:23.689Z,0
2017-03-02T02:39:24.227Z,0
2017-03-02T02:40:24.754Z,0
2017-03-02T02:41:25.291Z,0
2017-03-02T02:42:25.821Z,0
2017-03-02T02:43:26.353Z,0
2017-03-02T02:44:26.884Z,0
2017-03-02T02:45:27.420Z,0
2017-03-02T02:46:27.948Z,0
2017-03-02T02:47:28.481Z,0
2017-03-02T02:48:29.012Z,0
2017-03-02T02:49:29.548Z,0
2017-03-02T02:50:30.075Z,0
2017-03-02T02:51:30.606Z,0
2017-03-02T02:52:31.134Z,0
2017-03-02T02:53:31.673Z,0
2017-03-02T02:54:32.211Z,0
2017-03-02T02:55:32.746Z,0
2017-03-02T02:56:33.278Z,0
2017-03-02T02:57:33.808Z,0
2017-03-02T02:58:34.341Z,0
2017-03-02T02:59:34.872Z,0
2017-03-02T03:00:35.404Z,0
2017-03-02T03:01:35.939Z,0
2017-03-02T03:02:36.479Z,0
2017-03-02T03:03:37.003Z,0
2017-03-02T03:04:37.534Z,0
2017-03-02T03:05:38.059Z,0
2017-03-02T03:06:38.587Z,0
2017-03-02T03:07:39.125Z,0
2017-03-02T03:08:39.655Z,0
2017-03-02T03:09:40.187Z,0
2017-03-02T03:10:40.718Z,0
2017-03-02T03:11:41.251Z,0
2017-03-02T03:12:41.783Z,0
2017-03-02T03:13:42.317Z,0
2017-03-02T03:14:44.357Z,0
2017-03-02T03:15:43.375Z,0
2017-03-02T03:16:43.909Z,0
2017-03-02T03:17:44.441Z,0
2017-03-02T03:18:44.968Z,0
2017-03-02T03:19:45.504Z,0
2017-03-02T03:20:46.066Z,0
2017-03-02T03:21:46.568Z,0
2017-03-02T03:22:47.099Z,0
2017-03-02T03:23:47.631Z,0
2017-03-02T03:24:48.161Z,0
2017-03-02T03:25:48.694Z,0
2017-03-02T03:26:49.229Z,0
2017-03-02T03:27:49.904Z,0
2017-03-02T03:28:50.291Z,0
2017-03-02T03:29:50.824Z,0
2017-03-02T03:30:51.355Z,0
2017-03-02T03:31:51.897Z,0
2017-03-02T03:32:52.457Z,0
2017-03-02T03:33:52.963Z,0
2017-03-02T03:34:53.496Z,0
2017-03-02T03:35:54.037Z,0
2017-03-02T03:36:54.567Z,0
2017-03-02T03:37:55.101Z,0
2017-03-02T03:38:55.635Z,0
2017-03-02T03:39:56.167Z,0
2017-03-02T03:40:56.696Z,0
2017-03-02T03:41:57.229Z,0
2017-03-02T03:42:57.760Z,0
2017-03-02T03:43:58.293Z,0
2017-03-02T03:44:58.831Z,0
2017-03-02T03:45:59.351Z,0
2017-03-02T03:46:59.885Z,0
2017-03-02T03:48:00.417Z,0
2017-03-02T03:49:00.943Z,0
2017-03-02T03:50:01.477Z,0
2017-03-02T03:51:02.009Z,0
2017-03-02T03:52:02.540Z,0
2017-03-02T03:53:03.073Z,0
2017-03-02T03:54:03.606Z,0
2017-03-02T03:55:04.142Z,0
2017-03-02T03:56:04.667Z,0
2017-03-02T03:57:05.194Z,0
2017-03-02T03:58:05.729Z,0
2017-03-02T03:59:06.259Z,0
2017-03-02T04:00:06.793Z,0
2017-03-02T04:01:07.320Z,0
2017-03-02T04:02:07.855Z,0
2017-03-02T04:03:08.416Z,0
2017-03-02T04:04:08.917Z,0
2017-03-02T04:05:09.450Z,0
2017-03-02T04:06:09.978Z,0
2017-03-02T04:07:10.513Z,0
2017-03-02T04:08:11.043Z,0
2017-03-02T04:09:11.573Z,0
2017-03-02T04:10:12.104Z,0
2017-03-02T04:11:12.636Z,0
2017-03-02T04:12:13.172Z,0
2017-03-02T04:13:13.700Z,0
2017-03-02T04:14:14.236Z,0
2017-03-02T04:15:14.784Z,0
2017-03-02T04:16:15.445Z,0
2017-03-02T04:17:15.847Z,0
2017-03-02T04:18:16.372Z,0
2017-03-02T04:19:16.902Z,0
2017-03-02T04:20:17.441Z,0
2017-03-02T04:21:17.984Z,0
2017-03-02T04:22:18.509Z,0
2017-03-02T04:23:19.039Z,0
2017-03-02T04:24:19.572Z,0
2017-03-02T04:25:20.110Z,0
2017-03-02T04:26:20.635Z,0
2017-03-02T04:27:21.170Z,0
2017-03-02T04:28:21.694Z,0
2017-03-02T04:29:22.224Z,0
2017-03-02T04:30:22.753Z,0
2017-03-02T04:31:23.283Z,0
2017-03-02T04:32:23.821Z,0
2017-03-02T04:33:24.345Z,0
2017-03-02T04:34:24.880Z,0
2017-03-02T04:35:25.420Z,0
2017-03-02T04:36:25.940Z,0
2017-03-02T04:37:26.473Z,0
2017-03-02T04:38:27.004Z,0
2017-03-02T04:39:27.536Z,0
2017-03-02T04:40:28.070Z,0
2017-03-02T04:41:28.595Z,0
2017-03-02T04:42:29.132Z,0
2017-03-02T04:43:29.660Z,0
2017-03-02T04:44:30.201Z,0
2017-03-02T04:45:30.721Z,0
2017-03-02T04:46:31.252Z,0
2017-03-02T04:47:31.788Z,0
2017-03-02T04:48:32.320Z,0
2017-03-02T04:49:32.846Z,0
2017-03-02T04:50:33.383Z,0
2017-03-02T04:51:33.908Z,0
2017-03-02T04:52:34.440Z,0
2017-03-02T04:53:34.975Z,0
2017-03-02T04:54:35.509Z,0
2017-03-02T04:55:36.037Z,0
2017-03-02T04:56:36.577Z,0
2017-03-02T04:57:37.111Z,0
2017-03-02T04:58:37.647Z,0
2017-03-02T04:59:38.176Z,0
2017-03-02T05:00:38.714Z,0
2017-03-02T05:01:39.245Z,0
2017-03-02T05:02:39.780Z,0
2017-03-02T05:03:40.306Z,0
2017-03-02T05:04:40.871Z,0
2017-03-02T05:05:41.374Z,0
2017-03-02T05:06:41.905Z,0
2017-03-02T05:07:42.438Z,0
2017-03-02T05:08:42.975Z,0
2017-03-02T05:09:43.502Z,0
2017-03-02T05:10:44.039Z,0
2017-03-02T05:11:44.717Z,0
2017-03-02T05:12:45.099Z,0
2017-03-02T05:13:45.632Z,0
2017-03-02T05:14:46.162Z,0
2017-03-02T05:15:46.702Z,0
2017-03-02T05:16:47.227Z,0
2017-03-02T05:17:47.770Z,0
2017-03-02T05:18:48.293Z,0
2017-03-02T05:19:48.821Z,0
2017-03-02T05:20:49.353Z,0
2017-03-02T05:21:49.887Z,0
2017-03-02T05:22:50.418Z,0
2017-03-02T05:23:50.950Z,0
2017-03-02T05:24:51.485Z,0
2017-03-02T05:25:52.015Z,0
2017-03-02T05:26:52.545Z,0
2017-03-02T05:27:53.073Z,0
2017-03-02T05:28:53.607Z,0
2017-03-02T05:29:54.289Z,0
2017-03-02T05:30:54.670Z,0
2017-03-02T05:31:55.352Z,0
2017-03-02T05:32:55.733Z,0
2017-03-02T05:33:56.258Z,0
2017-03-02T05:34:56.797Z,0
2017-03-02T05:35:57.333Z,0
2017-03-02T05:36:57.865Z,0
2017-03-02T05:37:58.402Z,0
2017-03-02T05:38:58.945Z,0
2017-03-02T05:39:59.472Z,0
2017-03-02T05:41:00.006Z,0
2017-03-02T05:42:00.537Z,0
2017-03-02T05:43:01.078Z,0
2017-03-02T05:44:01.755Z,0
2017-03-02T05:45:02.151Z,0
2017-03-02T05:46:02.672Z,0
2017-03-02T05:47:03.207Z,0
2017-03-02T05:48:03.732Z,0
2017-03-02T05:49:04.270Z,0
2017-03-02T05:50:04.797Z,0
2017-03-02T05:51:05.330Z,0
2017-03-02T05:52:05.864Z,0
2017-03-02T05:53:06.392Z,0
2017-03-02T05:54:06.925Z,0
2017-03-02T05:55:07.459Z,0
2017-03-02T05:56:07.990Z,0
2017-03-02T05:57:08.525Z,0
2017-03-02T05:58:09.055Z,0
2017-03-02T05:59:09.588Z,0
2017-03-02T06:00:10.117Z,0
2017-03-02T06:01:10.653Z,0
2017-03-02T06:02:11.183Z,0
2017-03-02T06:03:11.721Z,0
2017-03-02T06:04:12.248Z,0
2017-03-02T06:05:12.784Z,0
2017-03-02T06:06:13.323Z,0
2017-03-02T06:07:13.846Z,0
2017-03-02T06:08:14.384Z,0
2017-03-02T06:09:14.910Z,0
2017-03-02T06:10:15.447Z,0
2017-03-02T06:11:15.974Z,0
2017-03-02T06:12:16.504Z,0
2017-03-02T06:13:17.032Z,0
2017-03-02T06:14:18.495Z,0
2017-03-02T06:15:18.094Z,0
2017-03-02T06:16:18.628Z,0
2017-03-02T06:17:19.159Z,0
2017-03-02T06:18:19.690Z,0
2017-03-02T06:19:20.230Z,0
2017-03-02T06:20:20.916Z,0
2017-03-02T06:21:21.302Z,0
2017-03-02T06:22:21.828Z,0
2017-03-02T06:23:22.369Z,0
2017-03-02T06:24:22.905Z,0
2017-03-02T06:25:23.426Z,0
2017-03-02T06:26:23.961Z,0
2017-03-02T06:27:24.494Z,0
2017-03-02T06:28:25.023Z,0
2017-03-02T06:29:25.553Z,0
2017-03-02T06:30:26.084Z,0
2017-03-02T06:31:26.617Z,0
2017-03-02T06:32:27.179Z,0
2017-03-02T06:33:27.684Z,0
2017-03-02T06:34:28.367Z,0
2017-03-02T06:35:28.749Z,0
2017-03-02T06:36:29.286Z,0
2017-03-02T06:37:29.811Z,0
2017-03-02T06:38:30.339Z,0
2017-03-02T06:39:31.021Z,21
2017-03-02T06:40:31.415Z,21
2017-03-02T06:41:31.939Z,12
2017-03-02T06:42:32.472Z,8
2017-03-02T06:43:33.010Z,15
2017-03-02T06:44:33.533Z,19
2017-03-02T06:45:34.069Z,12
2017-03-02T06:46:34.604Z,3
2017-03-02T06:47:35.135Z,0
2017-03-02T06:48:35.679Z,0
2017-03-02T06:49:36.205Z,0
2017-03-02T06:50:36.731Z,0
2017-03-02T06:51:37.264Z,0
2017-03-02T06:52:37.806Z,0
2017-03-02T06:53:38.334Z,0
2017-03-02T06:54:38.868Z,0
2017-03-02T06:55:39.399Z,0
2017-03-02T06:56:39.929Z,0
2017-03-02T06:57:40.467Z,0
2017-03-02T06:58:41.012Z,0
2017-03-02T06:59:41.539Z,17
2017-03-02T07:00:42.073Z,28
2017-03-02T07:01:42.610Z,37
2017-03-02T07:02:43.145Z,35
2017-03-02T07:03:43.673Z,33
2017-03-02T07:04:44.214Z,39
2017-03-02T07:05:44.738Z,38
2017-03-02T07:06:45.268Z,30
2017-03-02T07:07:45.809Z,30
2017-03-02T07:08:46.340Z,28
2017-03-02T07:09:46.862Z,35
2017-03-02T07:10:47.392Z,48
2017-03-02T07:11:47.922Z,51
2017-03-02T07:12:48.465Z,54
2017-03-02T07:13:48.990Z,54
2017-03-02T07:14:49.519Z,63
2017-03-02T07:15:50.054Z,61
2017-03-02T07:16:50.590Z,85
2017-03-02T07:17:51.124Z,87
2017-03-02T07:18:51.658Z,71
2017-03-02T07:19:52.188Z,88
2017-03-02T07:20:52.717Z,60
2017-03-02T07:21:53.250Z,71
2017-03-02T07:22:53.784Z,95
2017-03-02T07:23:54.326Z,102
2017-03-02T07:24:54.850Z,93
2017-03-02T07:25:55.379Z,88
2017-03-02T07:26:55.917Z,76
2017-03-02T07:27:56.447Z,63
2017-03-02T07:28:56.983Z,49
2017-03-02T07:29:57.509Z,51
2017-03-02T07:30:58.042Z,55
2017-03-02T07:31:58.573Z,62
2017-03-02T07:32:59.104Z,98
2017-03-02T07:33:59.638Z,98
2017-03-02T07:35:00.168Z,74
2017-03-02T07:36:00.701Z,182
2017-03-02T07:37:01.238Z,186
2017-03-02T07:38:01.774Z,190
2017-03-02T07:39:02.307Z,188
2017-03-02T07:40:02.845Z,194
2017-03-02T07:41:03.380Z,199
2017-03-02T07:42:03.923Z,199
2017-03-02T07:43:04.453Z,201
2017-03-02T07:44:04.988Z,208
2017-03-02T07:45:05.526Z,221
2017-03-02T07:46:06.052Z,223
2017-03-02T07:47:06.593Z,230
2017-03-02T07:48:07.111Z,240
2017-03-02T07:49:07.644Z,245
2017-03-02T07:50:08.183Z,249
2017-03-02T07:51:08.854Z,253
2017-03-02T07:52:09.239Z,255
2017-03-02T07:53:09.765Z,266
2017-03-02T07:54:10.302Z,264
2017-03-02T07:55:10.835Z,274
2017-03-02T07:56:11.362Z,277
2017-03-02T07:57:11.895Z,282
2017-03-02T07:58:12.430Z,286
2017-03-02T07:59:12.968Z,287
2017-03-02T08:00:13.496Z,295
2017-03-02T08:01:14.024Z,296
2017-03-02T08:02:14.559Z,310
2017-03-02T08:03:15.118Z,309
2017-03-02T08:04:15.625Z,313
2017-03-02T08:05:16.153Z,314
2017-03-02T08:06:16.700Z,320
2017-03-02T08:07:17.212Z,326
2017-03-02T08:08:17.760Z,336
2017-03-02T08:09:18.281Z,341
2017-03-02T08:10:18.812Z,336
2017-03-02T08:11:19.336Z,341
2017-03-02T08:12:19.872Z,337
2017-03-02T08:13:20.398Z,343
2017-03-02T08:14:20.932Z,246
2017-03-02T08:15:21.464Z,332
2017-03-02T08:16:21.995Z,342
2017-03-02T08:17:22.545Z,337
2017-03-02T08:18:23.064Z,371
2017-03-02T08:19:23.595Z,361
2017-03-02T08:20:24.133Z,368
2017-03-02T08:21:24.669Z,377
2017-03-02T08:22:25.203Z,373
2017-03-02T08:23:25.738Z,354
2017-03-02T08:24:26.275Z,375
2017-03-02T08:25:26.805Z,385
2017-03-02T08:26:27.342Z,392
2017-03-02T08:27:27.868Z,396
2017-03-02T08:28:28.418Z,404
2017-03-02T08:29:28.944Z,409
2017-03-02T08:30:29.463Z,423
2017-03-02T08:31:29.994Z,448
2017-03-02T08:32:30.530Z,429
2017-03-02T08:33:31.104Z,459
2017-03-02T08:34:31.594Z,168
2017-03-02T08:35:32.119Z,524
2017-03-02T08:36:32.651Z,520
2017-03-02T08:37:33.181Z,199
2017-03-02T08:38:33.715Z,220
2017-03-02T08:39:34.241Z,243
2017-03-02T08:40:34.772Z,344
2017-03-02T08:41:35.305Z,279
2017-03-02T08:42:35.839Z,274
2017-03-02T08:43:36.367Z,290
2017-03-02T08:44:36.900Z,307
2017-03-02T08:45:37.438Z,296
2017-03-02T08:46:37.967Z,271
2017-03-02T08:47:38.498Z,257
2017-03-02T08:48:39.031Z,253
2017-03-02T08:49:39.569Z,269
2017-03-02T08:50:40.102Z,258
2017-03-02T08:51:40.635Z,240
2017-03-02T08:52:41.170Z,207
2017-03-02T08:53:41.696Z,228
2017-03-02T08:54:42.232Z,199
2017-03-02T08:55:42.758Z,160
2017-03-02T08:56:43.289Z,139
2017-03-02T08:57:43.818Z,185
2017-03-02T08:58:44.357Z,240
2017-03-02T08:59:45.185Z,275
2017-03-02T09:00:45.438Z,256
2017-03-02T09:01:45.965Z,233
2017-03-02T09:02:46.497Z,175
2017-03-02T09:03:47.029Z,147
2017-03-02T09:04:47.569Z,169
2017-03-02T09:05:48.107Z,221
2017-03-02T09:06:48.631Z,268
2017-03-02T09:07:49.162Z,311
2017-03-02T09:08:49.695Z,305
2017-03-02T09:09:50.221Z,254
2017-03-02T09:10:50.757Z,242
2017-03-02T09:11:51.289Z,232
2017-03-02T09:12:51.815Z,231
2017-03-02T09:13:52.353Z,211
2017-03-02T09:14:52.885Z,222
2017-03-02T09:15:53.422Z,217
2017-03-02T09:16:53.976Z,224
2017-03-02T09:17:54.476Z,185
2017-03-02T09:18:55.011Z,195
2017-03-02T09:19:55.542Z,188
2017-03-02T09:20:56.076Z,182
2017-03-02T09:21:56.608Z,147
2017-03-02T09:22:57.141Z,229
2017-03-02T09:23:57.674Z,215
2017-03-02T09:24:58.218Z,208
2017-03-02T09:25:58.737Z,197
2017-03-02T09:26:59.269Z,201
2017-03-02T09:27:59.797Z,187
2017-03-02T09:29:00.330Z,220
2017-03-02T09:30:00.860Z,258
2017-03-02T09:31:01.397Z,258
2017-03-02T09:32:01.928Z,257
2017-03-02T09:33:02.466Z,249
2017-03-02T09:34:03.002Z,232
2017-03-02T09:35:03.527Z,228
2017-03-02T09:36:04.052Z,227
2017-03-02T09:37:04.589Z,215
2017-03-02T09:38:05.117Z,208
2017-03-02T09:39:05.650Z,188
2017-03-02T09:40:06.179Z,183
2017-03-02T09:41:06.712Z,178
2017-03-02T09:42:07.247Z,178
2017-03-02T09:43:07.788Z,188
2017-03-02T09:44:08.319Z,187
2017-03-02T09:45:08.860Z,180
2017-03-02T09:46:09.387Z,145
2017-03-02T09:47:09.925Z,132
2017-03-02T09:48:10.454Z,146
2017-03-02T09:49:10.990Z,132
2017-03-02T09:50:11.521Z,119
2017-03-02T09:51:12.056Z,117
2017-03-02T09:52:12.583Z,83
2017-03-02T09:53:13.116Z,92
2017-03-02T09:54:13.643Z,114
2017-03-02T09:55:14.177Z,99
2017-03-02T09:56:14.859Z,68
2017-03-02T09:57:15.241Z,51
2017-03-02T09:58:15.774Z,47
2017-03-02T09:59:16.309Z,41
2017-03-02T10:00:16.840Z,38
2017-03-02T10:01:17.368Z,35
2017-03-02T10:02:17.898Z,32
2017-03-02T10:03:18.431Z,28
2017-03-02T10:04:18.958Z,30
2017-03-02T10:05:19.495Z,36
2017-03-02T10:06:20.027Z,39
2017-03-02T10:07:20.567Z,39
2017-03-02T10:08:21.094Z,43
2017-03-02T10:09:21.626Z,43
2017-03-02T10:10:22.159Z,56
2017-03-02T10:11:22.688Z,77
2017-03-02T10:12:23.369Z,81
2017-03-02T10:13:23.753Z,97
2017-03-02T10:14:24.281Z,114
2017-03-02T10:15:24.829Z,123
2017-03-02T10:16:25.352Z,132
2017-03-02T10:17:25.884Z,132
2017-03-02T10:18:26.415Z,179
2017-03-02T10:19:26.944Z,192
2017-03-02T10:20:27.474Z,190
2017-03-02T10:21:28.013Z,183
2017-03-02T10:22:28.538Z,178
2017-03-02T10:23:29.072Z,170
2017-03-02T10:24:29.611Z,163
2017-03-02T10:25:30.146Z,153
2017-03-02T10:26:30.680Z,150
2017-03-02T10:27:31.215Z,130
2017-03-02T10:28:31.756Z,124
2017-03-02T10:29:32.279Z,121
2017-03-02T10:30:32.816Z,127
2017-03-02T10:31:33.342Z,132
2017-03-02T10:32:33.873Z,130
2017-03-02T10:33:34.403Z,136
2017-03-02T10:34:34.932Z,133
2017-03-02T10:35:35.463Z,132
2017-03-02T10:36:35.991Z,131
2017-03-02T10:37:36.526Z,139
2017-03-02T10:38:37.071Z,122
2017-03-02T10:39:37.591Z,125
2017-03-02T10:40:38.129Z,119
2017-03-02T10:41:38.658Z,135
2017-03-02T10:42:39.479Z,142
2017-03-02T10:43:39.716Z,146
2017-03-02T10:44:40.261Z,173
2017-03-02T10:45:40.788Z,163
2017-03-02T10:46:41.465Z,191
2017-03-02T10:47:41.850Z,206
2017-03-02T10:48:42.380Z,201
2017-03-02T10:49:42.910Z,181
2017-03-02T10:50:43.444Z,201
2017-03-02T10:51:43.982Z,231
2017-03-02T10:52:44.510Z,215
2017-03-02T10:53:45.043Z,190
2017-03-02T10:54:45.579Z,194
2017-03-02T10:55:46.105Z,204
2017-03-02T10:56:46.635Z,188
2017-03-02T10:57:47.172Z,176
2017-03-02T10:58:47.704Z,163
2017-03-02T10:59:48.382Z,142
2017-03-02T11:00:48.770Z,136
2017-03-02T11:01:49.299Z,116
2017-03-02T11:02:49.831Z,122
2017-03-02T11:03:50.367Z,154
2017-03-02T11:04:50.904Z,170
2017-03-02T11:05:51.444Z,157
2017-03-02T11:06:51.975Z,158
2017-03-02T11:07:52.507Z,162
2017-03-02T11:08:53.042Z,170
2017-03-02T11:09:53.719Z,193
2017-03-02T11:10:54.105Z,215
2017-03-02T11:11:54.636Z,198
2017-03-02T11:12:55.167Z,160
2017-03-02T11:13:55.700Z,251
2017-03-02T11:14:56.233Z,266
2017-03-02T11:15:56.760Z,243
2017-03-02T11:16:57.323Z,198
2017-03-02T11:17:57.969Z,229
2017-03-02T11:18:58.356Z,257
2017-03-02T11:19:58.889Z,262
2017-03-02T11:20:59.426Z,236
2017-03-02T11:21:59.958Z,249
2017-03-02T11:23:00.480Z,198
2017-03-02T11:24:01.018Z,229
2017-03-02T11:25:01.555Z,253
2017-03-02T11:26:02.079Z,261
2017-03-02T11:27:02.615Z,275
2017-03-02T11:28:03.146Z,281
2017-03-02T11:29:03.828Z,243
2017-03-02T11:30:04.212Z,252
2017-03-02T11:31:04.743Z,247
2017-03-02T11:32:05.277Z,222
2017-03-02T11:33:05.804Z,208
2017-03-02T11:34:06.337Z,153
2017-03-02T11:35:06.869Z,154
2017-03-02T11:36:07.400Z,149
2017-03-02T11:37:07.934Z,155
2017-03-02T11:38:08.463Z,158
2017-03-02T11:39:09.013Z,146
2017-03-02T11:40:09.531Z,158
2017-03-02T11:41:10.062Z,161
2017-03-02T11:42:10.594Z,98
2017-03-02T11:43:11.123Z,85
2017-03-02T11:44:11.659Z,112
2017-03-02T11:45:12.192Z,126
2017-03-02T11:46:12.731Z,138
2017-03-02T11:47:13.272Z,157
2017-03-02T11:48:13.806Z,166
2017-03-02T11:49:14.341Z,115
2017-03-02T11:50:14.872Z,133
2017-03-02T11:51:15.409Z,158
2017-03-02T11:52:15.936Z,152
2017-03-02T11:53:16.470Z,146
2017-03-02T11:54:17.000Z,149
2017-03-02T11:55:17.529Z,163
2017-03-02T11:56:18.062Z,177
2017-03-02T11:57:18.593Z,187
2017-03-02T11:58:19.129Z,195
2017-03-02T11:59:19.663Z,217
2017-03-02T12:00:20.195Z,257
2017-03-02T12:01:20.724Z,273
2017-03-02T12:02:21.255Z,280
2017-03-02T12:03:21.934Z,256
2017-03-02T12:04:22.318Z,257
2017-03-02T12:05:22.860Z,255
2017-03-02T12:06:23.381Z,248
2017-03-02T12:07:23.912Z,238
2017-03-02T12:08:24.446Z,208
2017-03-02T12:09:24.975Z,223
2017-03-02T12:10:25.511Z,220
2017-03-02T12:11:26.192Z,225
2017-03-02T12:12:26.571Z,217
2017-03-02T12:13:27.107Z,215
2017-03-02T12:14:27.635Z,262
2017-03-02T12:15:28.167Z,273
2017-03-02T12:16:28.700Z,269
2017-03-02T12:17:29.379Z,274
2017-03-02T12:18:29.757Z,275
2017-03-02T12:19:30.287Z,316
2017-03-02T12:20:30.823Z,310
2017-03-02T12:21:31.356Z,322
2017-03-02T12:22:31.886Z,275
2017-03-02T12:23:32.416Z,249
2017-03-02T12:24:32.950Z,204
2017-03-02T12:25:33.632Z,214
2017-03-02T12:26:34.023Z,212
2017-03-02T12:27:34.558Z,249
2017-03-02T12:28:35.096Z,267
2017-03-02T12:29:35.630Z,280
2017-03-02T12:30:36.165Z,291
2017-03-02T12:31:36.706Z,299
2017-03-02T12:32:37.417Z,298
2017-03-02T12:33:37.771Z,311
2017-03-02T12:34:38.294Z,292
2017-03-02T12:35:38.840Z,319
2017-03-02T12:36:39.357Z,349
2017-03-02T12:37:39.885Z,317
2017-03-02T12:38:40.416Z,263
2017-03-02T12:39:40.947Z,209
2017-03-02T12:40:41.481Z,216
2017-03-02T12:41:42.022Z,242
2017-03-02T12:42:42.543Z,246
2017-03-02T12:43:43.075Z,248
2017-03-02T12:44:43.608Z,270
2017-03-02T12:45:44.142Z,284
2017-03-02T12:46:44.674Z,252
2017-03-02T12:47:45.208Z,287
2017-03-02T12:48:45.736Z,272
2017-03-02T12:49:46.418Z,287
2017-03-02T12:50:46.800Z,295
2017-03-02T12:51:47.363Z,299
2017-03-02T12:52:47.861Z,325
2017-03-02T12:53:48.544Z,299
2017-03-02T12:54:48.928Z,312
2017-03-02T12:55:49.458Z,283
2017-03-02T12:56:49.996Z,219
2017-03-02T12:57:50.525Z,179
2017-03-02T12:58:51.056Z,227
2017-03-02T12:59:51.583Z,261
2017-03-02T13:00:52.116Z,215
2017-03-02T13:01:52.653Z,209
2017-03-02T13:02:53.183Z,281
2017-03-02T13:03:53.710Z,303
2017-03-02T13:04:54.248Z,282
2017-03-02T13:05:54.779Z,276
2017-03-02T13:06:55.307Z,267
2017-03-02T13:07:55.850Z,292
2017-03-02T13:08:56.383Z,342
2017-03-02T13:09:56.919Z,397
2017-03-02T13:10:57.451Z,424
2017-03-02T13:11:58.154Z,389
2017-03-02T13:12:58.666Z,356
2017-03-02T13:13:59.055Z,287
2017-03-02T13:14:59.579Z,296
2017-03-02T13:16:00.122Z,316
2017-03-02T13:17:00.644Z,270
2017-03-02T13:18:01.176Z,248
2017-03-02T13:19:01.707Z,206
2017-03-02T13:20:02.238Z,185
2017-03-02T13:21:02.772Z,156
2017-03-02T13:22:03.301Z,130
2017-03-02T13:23:03.837Z,126
2017-03-02T13:24:04.365Z,131
2017-03-02T13:25:04.898Z,130
2017-03-02T13:26:05.437Z,137
2017-03-02T13:27:05.983Z,137
2017-03-02T13:28:06.672Z,119
2017-03-02T13:29:07.064Z,118
2017-03-02T13:30:07.750Z,128
2017-03-02T13:31:08.137Z,135
2017-03-02T13:32:08.708Z,125
2017-03-02T13:33:09.209Z,137
2017-03-02T13:34:09.743Z,171
2017-03-02T13:35:10.273Z,199
2017-03-02T13:36:10.810Z,174
2017-03-02T13:37:11.345Z,182
2017-03-02T13:38:11.871Z,186
2017-03-02T13:39:12.411Z,198
2017-03-02T13:40:12.937Z,201
2017-03-02T13:41:13.467Z,198
2017-03-02T13:42:13.996Z,204
2017-03-02T13:43:14.527Z,207
2017-03-02T13:44:15.061Z,183
2017-03-02T13:45:15.587Z,194
2017-03-02T13:46:16.126Z,187
2017-03-02T13:47:16.652Z,193
2017-03-02T13:48:17.186Z,220
2017-03-02T13:49:17.733Z,258
2017-03-02T13:50:18.264Z,272
2017-03-02T13:51:18.809Z,287
2017-03-02T13:52:19.332Z,312
2017-03-02T13:53:19.867Z,356
2017-03-02T13:54:20.399Z,514
2017-03-02T13:55:20.931Z,410
2017-03-02T13:56:21.461Z,396
2017-03-02T13:57:21.995Z,337
2017-03-02T13:58:22.524Z,318
2017-03-02T13:59:23.056Z,317
2017-03-02T14:00:23.599Z,313
2017-03-02T14:01:24.117Z,321
2017-03-02T14:02:24.802Z,341
2017-03-02T14:03:25.183Z,311
2017-03-02T14:04:25.720Z,300
2017-03-02T14:05:26.249Z,341
2017-03-02T14:06:26.775Z,636
2017-03-02T14:07:27.311Z,502
2017-03-02T14:08:27.850Z,294
2017-03-02T14:09:28.375Z,708
2017-03-02T14:10:28.908Z,397
2017-03-02T14:11:29.438Z,584
2017-03-02T14:12:29.972Z,299
2017-03-02T14:13:30.506Z,278
2017-03-02T14:14:31.039Z,300
2017-03-02T14:15:31.572Z,354
2017-03-02T14:16:32.101Z,346
2017-03-02T14:17:32.640Z,399
2017-03-02T14:18:33.169Z,331
2017-03-02T14:19:33.701Z,318
2017-03-02T14:20:34.235Z,312
2017-03-02T14:21:34.768Z,292
2017-03-02T14:22:35.297Z,326
2017-03-02T14:23:35.831Z,358
2017-03-02T14:24:36.363Z,395